Accueil
METAR-TAF:

METAR-TAF

Aéroports :

Aéroport international de Plattsburgh

Plattsburgh, New York, États-Unis

latitude: 44-39N, longitude: 073-28W, altitude: 72 m

Observation

Le bulletin a été fait il y a 36 minutes, à 04:53 UTC
Vent 3 kt de sud-ouest
Température 14°C
Humidité 72%
Pression 1013 hPa
Visibilité: 16.1 km
Ciel clair

METAR: KPBG 200453Z AUTO 22003KT 10SM CLR 14/09 A2990 RMK AO2 SLP124 T01390094 402440122

Heure: 01:29 (05:29 UTC)

Prévision

Le bulletin a été fait il y a 6 heures et 9 minutes, à 23:20 UTC
Prévision valable du 20 à 00 UTC au 20 à 24 UTC
Vent 5 kt de nord/nord-ouest
Visibilité: 10 km
Ciel clair
A partir de 20 à 1400 UTC
Vent 6 kt de sud
Visibilité: 10 km
Quelques nuages à une hauteur de 25000 ft
A partir de 20 à 2200 UTC
Vent 5 kt de sud-ouest
Visibilité: 10 km
Nuages épars à une hauteur de 20000 ft

TAF: KPBG 192320Z 2000/2024 33005KT P6SM SKC FM201400 17006KT P6SM FEW250 FM202200 23005KT P6SM SCT200

Observations et prévisions météorologiques de plus de 4000 aéroports (messages METAR et TAF).

Les stations disponibles sont représentées par des disques jaunes et rouges sur la carte.

Passer la souris dessus pour voir le nom de la station.

Cliquer dessus pour voir les observations et prévisions météorologiques.

Pour changer de carte: cliquez sur les boutons verts avec une croix noire pour zoomer, sur le bouton vert avec un tiret pour effectuer un zoom arrière, ou sur les flèches vertes pour les cartes adjacentes.


METAR-TAF: